Time;durP1;ratioP1;P1;durP2;ratioP2;P2;SDS_P1;SDS_P2;PMS_P1;PMS_P2;Temp;Humidity;BMP_temperature;BMP_pressure;BME280_temperature;BME280_humidity;BME280_pressure;Samples;Min_cycle;Max_cycle;Signal;HPM_P1;HPM_P2
2023/05/15 00:02:06;;;;;;;10.40;2.03;;;;;;;16.97;100.00;100133.91;5037335;28;20207;-77
2023/05/15 00:04:33;;;;;;;13.38;2.35;;;;;;;16.77;100.00;100141.94;5072684;28;20226;-78
2023/05/15 00:07:00;;;;;;;12.10;2.20;;;;;;;16.85;100.00;100140.13;5072296;28;20673;-77
2023/05/15 00:09:27;;;;;;;11.13;2.00;;;;;;;16.68;100.00;100144.66;5072785;28;20191;-79
2023/05/15 00:11:55;;;;;;;10.13;1.95;;;;;;;16.52;100.00;100127.28;5073050;28;20202;-80
2023/05/15 00:14:22;;;;;;;8.55;1.77;;;;;;;16.42;100.00;100136.13;5072796;28;20653;-77
2023/05/15 00:16:48;;;;;;;11.98;2.75;;;;;;;16.27;100.00;100126.63;5072863;28;20195;-77
2023/05/15 00:19:15;;;;;;;11.02;2.10;;;;;;;16.11;100.00;100111.94;5072759;28;20195;-78
2023/05/15 00:21:42;;;;;;;16.58;2.70;;;;;;;16.07;100.00;100113.69;5072779;28;20563;-77
2023/05/15 00:24:09;;;;;;;13.50;2.30;;;;;;;16.07;100.00;100105.84;5072677;28;20632;-78
2023/05/15 00:26:35;;;;;;;11.38;2.08;;;;;;;16.10;100.00;100097.09;5072400;28;20199;-78
2023/05/15 00:29:04;;;;;;;12.05;2.15;;;;;;;16.15;100.00;100097.97;5072382;28;20195;-78
2023/05/15 00:31:32;;;;;;;14.60;2.33;;;;;;;16.08;100.00;100091.03;5071782;28;20206;-78
2023/05/15 00:33:58;;;;;;;11.48;2.17;;;;;;;15.85;100.00;100055.44;5072478;28;20202;-78
2023/05/15 00:36:26;;;;;;;9.48;1.83;;;;;;;15.97;100.00;100064.97;5071607;28;20256;-79
2023/05/15 00:38:52;;;;;;;13.48;2.28;;;;;;;16.01;100.00;100074.53;5072444;28;20214;-79
2023/05/15 00:41:22;;;;;;;15.30;2.45;;;;;;;16.10;100.00;100068.34;5071746;28;20223;-77
2023/05/15 00:43:51;;;;;;;11.73;2.38;;;;;;;16.10;100.00;100068.34;5072071;28;20642;-78
2023/05/15 00:46:20;;;;;;;7.50;1.55;;;;;;;16.02;100.00;100049.22;5072053;28;20234;-77
2023/05/15 00:48:49;;;;;;;13.02;2.22;;;;;;;15.95;100.00;100053.63;5072453;28;20779;-80
2023/05/15 00:51:16;;;;;;;8.65;1.70;;;;;;;15.85;100.00;100049.34;5072102;28;20195;-77
2023/05/15 00:53:43;;;;;;;15.45;2.47;;;;;;;15.84;100.00;100053.69;5071883;28;20672;-78
2023/05/15 00:56:12;;;;;;;11.10;2.00;;;;;;;15.93;100.00;100033.59;5071742;28;20207;-78
2023/05/15 00:58:39;;;;;;;12.25;2.13;;;;;;;15.84;100.00;100026.69;5072253;28;20281;-77
2023/05/15 01:01:06;;;;;;;12.45;2.15;;;;;;;15.87;100.00;100018.84;5071710;28;20248;-78
2023/05/15 01:03:34;;;;;;;11.50;2.05;;;;;;;15.97;100.00;100036.19;5071870;28;20223;-78
2023/05/15 01:06:01;;;;;;;13.43;2.22;;;;;;;15.94;100.00;100043.19;5071872;28;20264;-77
2023/05/15 01:08:42;;;;;;;11.77;2.22;;;;;;;16.02;100.00;100054.44;5071364;28;20202;-76
2023/05/15 01:11:10;;;;;;;9.90;1.83;;;;;;;15.94;100.00;100057.13;5072087;28;20199;-77
2023/05/15 01:13:37;;;;;;;11.45;2.03;;;;;;;15.87;100.00;100050.22;5071758;28;20207;-77
2023/05/15 01:16:05;;;;;;;9.48;2.13;;;;;;;15.85;100.00;100067.63;5071478;28;20225;-78
2023/05/15 01:18:31;;;;;;;10.27;1.88;;;;;;;15.78;100.00;100077.28;5071517;28;20201;-77
2023/05/15 01:21:32;;;;;;;11.90;2.15;;;;;;;16.09;100.00;100071.81;5071602;28;20283;-78
2023/05/15 01:24:11;;;;;;;11.43;2.03;;;;;;;16.18;100.00;100077.88;5071156;28;20222;-78
2023/05/15 01:27:12;;;;;;;9.43;1.85;;;;;;;16.27;100.00;100082.16;5019614;28;20206;-78
2023/05/15 01:29:44;;;;;;;11.15;2.05;;;;;;;16.12;100.00;100051.78;5041261;28;20199;-76
2023/05/15 01:32:18;;;;;;;8.65;1.77;;;;;;;16.23;100.00;100076.06;5071314;28;20199;-77
2023/05/15 01:34:53;;;;;;;11.00;2.00;;;;;;;16.26;100.00;100076.06;5071416;28;20210;-78
2023/05/15 01:37:27;;;;;;;9.07;1.92;;;;;;;16.34;100.00;100082.09;5035122;28;20198;-78
2023/05/15 01:39:59;;;;;;;13.25;2.28;;;;;;;16.27;100.00;100101.34;5039890;28;20583;-77
2023/05/15 01:42:33;;;;;;;11.63;2.10;;;;;;;16.31;100.00;100112.66;5071144;28;20202;-77
2023/05/15 01:45:03;;;;;;;11.25;2.10;;;;;;;16.19;100.00;100077.00;5071200;28;20708;-78
2023/05/15 01:47:35;;;;;;;13.30;2.28;;;;;;;16.27;100.00;100097.84;5070979;28;20202;-78
2023/05/15 01:50:04;;;;;;;11.77;2.00;;;;;;;16.14;100.00;100081.38;5070751;28;20213;-78
2023/05/15 01:52:33;;;;;;;9.73;1.85;;;;;;;16.15;100.00;100090.97;5071166;28;20322;-78
2023/05/15 01:55:02;;;;;;;10.32;1.92;;;;;;;16.06;100.00;100093.66;5071379;28;20195;-78
2023/05/15 01:57:31;;;;;;;10.32;1.88;;;;;;;16.03;100.00;100093.66;5071286;28;20202;-78
2023/05/15 01:59:59;;;;;;;11.05;2.03;;;;;;;16.07;100.00;100084.94;5071028;28;20199;-78
2023/05/15 02:02:27;;;;;;;9.63;1.80;;;;;;;16.05;100.00;100046.59;5001134;28;20204;-78
2023/05/15 02:04:55;;;;;;;8.95;1.70;;;;;;;16.12;100.00;100050.91;5070463;28;20234;-78
2023/05/15 02:07:23;;;;;;;12.43;2.08;;;;;;;15.97;100.00;100027.47;5070630;28;20571;-78
2023/05/15 02:09:52;;;;;;;14.75;3.15;;;;;;;15.88;100.00;100034.50;5071187;28;20226;-78
2023/05/15 02:12:20;;;;;;;11.75;2.08;;;;;;;15.76;100.00;100018.91;5070708;28;20226;-78
2023/05/15 02:14:51;;;;;;;11.00;2.00;;;;;;;15.82;100.00;100020.59;5070900;28;20203;-78
2023/05/15 02:17:18;;;;;;;12.88;2.55;;;;;;;15.65;100.00;100007.66;5070387;28;20210;-78
2023/05/15 02:19:45;;;;;;;12.13;2.08;;;;;;;15.49;100.00;100012.97;5070429;28;20195;-78
2023/05/15 02:22:11;;;;;;;11.63;2.08;;;;;;;15.58;100.00;100042.56;5070356;28;20222;-78
2023/05/15 02:24:38;;;;;;;11.05;1.98;;;;;;;15.59;100.00;100035.59;5070530;28;20227;-78
2023/05/15 02:27:12;;;;;;;13.95;2.30;;;;;;;15.43;100.00;100026.06;5035041;28;20617;-78
2023/05/15 02:30:00;;;;;;;11.90;1.98;;;;;;;15.34;100.00;100030.44;5070191;28;20877;-78
2023/05/15 02:32:31;;;;;;;11.18;2.05;;;;;;;15.23;100.00;100024.41;5057171;28;20264;-78
2023/05/15 02:35:07;;;;;;;13.48;2.17;;;;;;;15.15;100.00;100036.66;5070625;28;20201;-78
2023/05/15 02:37:38;;;;;;;11.52;2.00;;;;;;;15.07;100.00;100020.13;5070054;28;20202;-78
2023/05/15 02:40:09;;;;;;;13.30;2.15;;;;;;;15.05;100.00;100032.34;5070307;28;20265;-78
2023/05/15 02:42:37;;;;;;;21.13;2.72;;;;;;;14.88;100.00;100036.72;5070534;28;20665;-78
2023/05/15 02:45:08;;;;;;;13.50;2.17;;;;;;;14.97;100.00;100023.66;5023809;28;20732;-78
2023/05/15 02:47:35;;;;;;;12.07;2.05;;;;;;;14.73;100.00;99989.81;5035225;28;20230;-78
2023/05/15 02:50:03;;;;;;;16.55;2.53;;;;;;;14.61;100.00;99982.00;5070691;28;20256;-77
2023/05/15 02:52:30;;;;;;;11.63;1.95;;;;;;;14.76;100.00;100014.16;5035386;28;20203;-77
2023/05/15 02:54:56;;;;;;;14.27;2.35;;;;;;;14.70;100.00;100014.16;5069947;28;20199;-78
2023/05/15 02:57:23;;;;;;;11.90;2.08;;;;;;;14.69;100.00;100011.56;5069692;28;20213;-77
2023/05/15 02:59:50;;;;;;;12.88;2.17;;;;;;;14.66;100.00;100024.63;5071150;28;20202;-78
2023/05/15 03:02:18;;;;;;;13.05;2.20;;;;;;;14.64;100.00;100011.56;5074047;28;20708;-78
2023/05/15 03:04:45;;;;;;;14.00;2.25;;;;;;;14.74;100.00;100028.06;5073925;28;20226;-78
2023/05/15 03:07:13;;;;;;;10.20;1.98;;;;;;;14.80;100.00;100007.19;5071740;28;20676;-78
2023/05/15 03:09:40;;;;;;;7.75;1.60;;;;;;;15.00;100.00;100017.56;5060433;28;20198;-78
2023/05/15 03:12:07;;;;;;;11.65;2.17;;;;;;;14.63;100.00;99931.53;5074066;28;20206;-78
2023/05/15 03:14:34;;;;;;;9.63;1.90;;;;;;;15.09;100.00;100015.75;5073557;28;20203;-78
2023/05/15 03:17:01;;;;;;;11.55;2.03;;;;;;;15.13;100.00;100012.25;5073962;28;20199;-78
2023/05/15 03:19:30;;;;;;;12.23;2.13;;;;;;;15.15;100.00;100009.66;5073468;28;20566;-78
2023/05/15 03:21:56;;;;;;;10.00;1.95;;;;;;;15.02;100.00;100001.00;5073653;28;20653;-78
2023/05/15 03:24:23;;;;;;;11.38;2.10;;;;;;;15.03;100.00;100005.34;5073599;28;20352;-78
2023/05/15 03:26:50;;;;;;;11.73;2.00;;;;;;;14.95;100.00;99964.50;5073756;28;20206;-78
2023/05/15 03:29:17;;;;;;;11.88;2.10;;;;;;;15.17;100.00;100006.16;5073307;28;20207;-78
2023/05/15 03:31:43;;;;;;;8.75;1.73;;;;;;;15.28;100.00;100014.81;5073318;28;20202;-78
2023/05/15 03:34:10;;;;;;;12.23;2.20;;;;;;;15.33;100.00;99989.53;5021689;28;20199;-78
2023/05/15 03:36:38;;;;;;;9.85;1.83;;;;;;;15.44;100.00;99989.47;5073119;28;20214;-78
2023/05/15 03:39:05;;;;;;;15.20;2.42;;;;;;;15.55;100.00;99999.91;5036976;28;20261;-78
2023/05/15 03:41:32;;;;;;;12.82;2.15;;;;;;;15.72;100.00;100027.66;5073483;28;20290;-78
2023/05/15 03:43:59;;;;;;;12.25;2.05;;;;;;;15.70;100.00;100032.00;5073390;28;20210;-78
2023/05/15 03:46:26;;;;;;;9.25;1.80;;;;;;;15.89;100.00;100035.38;5072937;28;20222;-79
2023/05/15 03:48:53;;;;;;;11.27;2.08;;;;;;;15.98;100.00;100040.53;5061082;28;20203;-77
2023/05/15 03:51:20;;;;;;;6.70;1.52;;;;;;;16.09;100.00;100050.91;5067757;28;20294;-77
2023/05/15 03:53:48;;;;;;;8.00;1.60;;;;;;;16.22;100.00;100061.28;5067454;28;20198;-78
2023/05/15 03:56:15;;;;;;;7.85;1.65;;;;;;;16.20;100.00;100062.16;5072914;28;20210;-80
2023/05/15 03:58:42;;;;;;;3.30;1.15;;;;;;;16.30;100.00;100062.06;5072631;28;20206;-78
2023/05/15 04:01:08;;;;;;;9.68;1.75;;;;;;;16.22;100.00;100045.56;5072494;28;20824;-79
2023/05/15 04:03:35;;;;;;;9.15;1.80;;;;;;;16.41;100.00;100066.34;5072873;28;20757;-79
2023/05/15 04:06:02;;;;;;;10.63;1.95;;;;;;;16.51;100.00;100062.75;5072747;28;20246;-77
2023/05/15 04:08:29;;;;;;;5.88;1.42;;;;;;;16.64;100.00;100072.25;5072473;28;20223;-81
2023/05/15 04:10:57;;;;;;;5.97;1.50;;;;;;;16.64;100.00;100067.03;5073192;28;20191;-78
2023/05/15 04:13:24;;;;;;;8.30;1.75;;;;;;;16.60;100.00;100070.56;5037134;28;20252;-77
2023/05/15 04:15:50;;;;;;;6.32;1.83;;;;;;;16.69;100.00;100057.38;5072733;28;20730;-79
2023/05/15 04:18:17;;;;;;;8.95;1.83;;;;;;;16.67;100.00;100025.09;5062745;28;20198;-79
2023/05/15 04:20:44;;;;;;;9.82;1.90;;;;;;;17.12;100.00;100057.78;5072769;28;20206;-79
2023/05/15 04:23:11;;;;;;;7.93;1.73;;;;;;;17.18;100.00;100061.19;5022685;28;20210;-78
2023/05/15 04:25:38;;;;;;;6.53;1.45;;;;;;;16.71;100.00;99998.00;5072640;28;20221;-78
2023/05/15 04:28:06;;;;;;;14.55;2.38;;;;;;;16.86;100.00;100063.31;5020922;28;20187;-78
2023/05/15 04:30:33;;;;;;;9.23;1.83;;;;;;;16.85;100.00;100062.44;5054138;28;20221;-78
2023/05/15 04:33:00;;;;;;;9.30;1.85;;;;;;;16.46;100.00;100048.84;5036801;28;20202;-78
2023/05/15 04:35:26;;;;;;;10.82;1.92;;;;;;;16.02;100.00;100044.84;5071903;28;20215;-77
2023/05/15 04:37:53;;;;;;;8.65;2.20;;;;;;;16.05;100.00;100044.81;5071922;28;20218;-77
2023/05/15 04:40:20;;;;;;;11.35;1.90;;;;;;;15.92;100.00;100026.63;5071664;28;20226;-78
2023/05/15 04:42:47;;;;;;;14.52;2.80;;;;;;;15.69;100.00;100048.59;5072376;28;20199;-78
2023/05/15 04:45:15;;;;;;;11.32;2.17;;;;;;;15.68;100.00;100039.00;5072220;28;20223;-79
2023/05/15 04:47:42;;;;;;;12.20;2.05;;;;;;;15.50;100.00;100043.47;5071740;28;20190;-78
2023/05/15 04:50:09;;;;;;;10.10;1.95;;;;;;;15.47;100.00;100031.25;5072358;28;20194;-79
2023/05/15 04:52:36;;;;;;;11.07;2.45;;;;;;;15.36;100.00;100036.53;5063648;28;20610;-78
2023/05/15 04:55:03;;;;;;;10.13;2.53;;;;;;;15.36;100.00;100031.31;5072331;28;20293;-79
2023/05/15 04:57:30;;;;;;;11.05;2.25;;;;;;;15.49;100.00;100028.66;5071741;28;20288;-79
2023/05/15 04:59:57;;;;;;;9.35;2.85;;;;;;;15.77;100.00;100027.59;5072307;28;20234;-76
2023/05/15 05:02:25;;;;;;;6.95;1.55;;;;;;;16.26;100.00;100023.75;5071956;28;20245;-79
2023/05/15 05:04:52;;;;;;;12.48;2.10;;;;;;;16.60;100.00;100028.66;5067496;28;20226;-78
2023/05/15 05:07:18;;;;;;;6.47;1.42;;;;;;;16.68;100.00;100040.81;5070494;28;20661;-79
2023/05/15 05:09:45;;;;;;;7.40;1.58;;;;;;;16.63;100.00;99973.66;5071364;28;20206;-80
2023/05/15 05:12:13;;;;;;;8.30;1.60;;;;;;;17.47;100.00;100060.81;5034601;28;20192;-76
2023/05/15 05:14:40;;;;;;;6.38;1.42;;;;;;;18.07;100.00;100056.47;5071954;28;20578;-79
2023/05/15 05:17:08;;;;;;;11.13;1.98;;;;;;;18.76;100.00;100027.28;5069221;28;20199;-76
2023/05/15 05:19:36;;;;;;;11.10;1.90;;;;;;;18.83;94.23;100034.16;5063247;28;20207;-74
2023/05/15 05:22:04;;;;;;;10.75;1.90;;;;;;;19.12;100.00;100068.59;5070478;28;20626;-83
2023/05/15 05:24:31;;;;;;;9.85;1.75;;;;;;;19.49;92.17;100068.75;5057701;28;20633;-83
2023/05/15 05:26:59;;;;;;;11.98;2.03;;;;;;;19.00;90.35;100053.09;5052232;28;20231;-81
2023/05/15 05:29:25;;;;;;;6.72;1.33;;;;;;;18.74;93.51;100053.56;5052913;28;20203;-81
2023/05/15 05:31:52;;;;;;;8.55;1.70;;;;;;;19.42;97.27;100063.66;5051524;28;20238;-76
2023/05/15 05:34:19;;;;;;;12.60;2.20;;;;;;;19.03;90.36;100047.75;5057182;28;20214;-78
2023/05/15 05:36:48;;;;;;;11.45;2.22;;;;;;;18.70;95.57;100058.91;5052127;28;20199;-84
2023/05/15 05:39:15;;;;;;;10.05;1.75;;;;;;;18.94;93.59;100058.44;5061614;28;20276;-81
2023/05/15 05:41:42;;;;;;;4.68;1.20;;;;;;;19.00;93.62;100034.69;5071713;28;20211;-78
2023/05/15 05:44:09;;;;;;;10.15;1.90;;;;;;;18.97;92.45;100053.16;5066938;28;20699;-77
2023/05/15 05:46:36;;;;;;;6.90;1.50;;;;;;;18.97;91.19;100053.16;5062115;28;20582;-80
2023/05/15 05:49:03;;;;;;;9.73;1.77;;;;;;;18.84;92.03;100030.63;5068338;28;20191;-83
2023/05/15 05:51:30;;;;;;;8.32;1.60;;;;;;;19.23;91.40;100066.63;5057510;28;20215;-82
2023/05/15 05:53:58;;;;;;;7.05;1.55;;;;;;;19.18;89.75;100041.34;5056863;28;20273;-79
2023/05/15 05:56:25;;;;;;;11.48;2.00;;;;;;;19.48;89.25;100064.38;5061912;28;20696;-78
2023/05/15 05:58:52;;;;;;;11.40;1.92;;;;;;;18.89;92.80;100060.31;5015797;28;20203;-77
2023/05/15 06:01:19;;;;;;;10.75;2.00;;;;;;;18.94;93.76;100065.50;5067152;28;20207;-80
2023/05/15 06:03:45;;;;;;;7.32;1.42;;;;;;;18.77;94.67;100058.78;5070642;28;20666;-80
2023/05/15 06:06:12;;;;;;;13.35;2.22;;;;;;;19.20;93.35;100068.44;5060044;28;20305;-81
2023/05/15 06:08:39;;;;;;;9.40;1.75;;;;;;;19.36;91.61;100090.91;5070151;28;20209;-77
2023/05/15 06:11:07;;;;;;;17.10;2.55;;;;;;;19.50;90.16;100090.66;5018808;28;20207;-77
2023/05/15 06:13:34;;;;;;;9.65;1.75;;;;;;;19.36;90.06;100082.16;5070948;28;20207;-77
2023/05/15 06:16:01;;;;;;;10.93;1.88;;;;;;;19.70;88.25;100099.84;5019306;28;20690;-79
2023/05/15 06:18:28;;;;;;;6.47;1.50;;;;;;;20.03;87.36;100092.97;5034819;28;20233;-80
2023/05/15 06:20:55;;;;;;;9.05;1.73;;;;;;;20.51;83.50;100095.34;5070767;28;20206;-78
2023/05/15 06:23:21;;;;;;;8.02;1.67;;;;;;;20.20;83.33;100095.19;5062325;28;20295;-84
2023/05/15 06:25:48;;;;;;;8.60;1.73;;;;;;;20.19;83.40;100094.31;5068625;28;20222;-74
2023/05/15 06:28:16;;;;;;;8.60;1.73;;;;;;;19.97;83.46;100086.97;5063896;28;20214;-75
2023/05/15 06:30:43;;;;;;;10.32;1.85;;;;;;;20.01;82.55;100088.66;5060274;28;20298;-76
2023/05/15 06:33:10;;;;;;;12.05;2.08;;;;;;;20.10;82.32;100089.28;5065744;28;20203;-77
2023/05/15 06:35:37;;;;;;;10.65;1.92;;;;;;;20.16;82.38;100085.63;5066432;28;20294;-74
2023/05/15 06:38:03;;;;;;;6.32;1.42;;;;;;;20.11;82.56;100079.63;5065967;28;20214;-74
2023/05/15 06:40:30;;;;;;;9.30;1.80;;;;;;;19.49;87.31;100075.75;5066781;28;20230;-74
2023/05/15 06:42:57;;;;;;;6.20;1.77;;;;;;;19.53;91.56;100051.13;5024985;28;20202;-77
2023/05/15 06:45:25;;;;;;;10.13;1.85;;;;;;;19.87;89.53;100060.00;5071056;28;20231;-75
2023/05/15 06:47:52;;;;;;;8.13;1.80;;;;;;;19.93;87.73;100059.88;5074608;28;20209;-76
2023/05/15 06:50:19;;;;;;;12.20;1.98;;;;;;;20.13;86.03;100065.50;5072050;28;20215;-76
2023/05/15 06:52:46;;;;;;;10.45;1.85;;;;;;;20.70;84.27;100070.25;5071430;28;20210;-75
2023/05/15 06:55:13;;;;;;;10.80;1.98;;;;;;;20.89;81.69;100074.13;5070292;28;20207;-74
2023/05/15 06:57:39;;;;;;;8.30;1.70;;;;;;;21.10;81.03;100062.13;5068745;28;20217;-76
2023/05/15 07:00:07;;;;;;;8.25;1.63;;;;;;;21.49;78.05;100063.63;5062824;28;20200;-76
2023/05/15 07:02:35;;;;;;;7.07;1.60;;;;;;;21.85;76.27;100058.16;5072368;28;20205;-77
2023/05/15 07:05:02;;;;;;;12.27;2.08;;;;;;;21.71;84.07;100059.44;5064319;28;20210;-77
2023/05/15 07:07:29;;;;;;;10.55;1.92;;;;;;;22.38;88.01;100061.72;5054692;28;20705;-77
2023/05/15 07:09:56;;;;;;;13.32;2.20;;;;;;;22.09;76.84;100060.91;5055022;28;20635;-76
2023/05/15 07:12:23;;;;;;;13.95;2.28;;;;;;;22.44;75.32;100045.69;5068455;28;20199;-76
2023/05/15 07:14:49;;;;;;;12.85;2.20;;;;;;;22.24;73.50;100049.84;5053965;28;20231;-76
2023/05/15 07:17:18;;;;;;;13.80;2.25;;;;;;;22.40;73.21;100067.84;5054045;28;20204;-77
2023/05/15 07:19:46;;;;;;;10.85;1.95;;;;;;;22.27;72.54;100058.56;5073713;28;20199;-76
2023/05/15 07:22:12;;;;;;;13.48;2.28;;;;;;;21.69;76.89;100073.59;5073863;28;20211;-77
2023/05/15 07:24:39;;;;;;;3.70;1.50;;;;;;;22.60;75.12;100065.38;5073997;28;20207;-77
2023/05/15 07:27:06;;;;;;;4.20;1.80;;;;;;;22.60;74.81;100058.31;5074083;28;20258;-77
2023/05/15 07:29:33;;;;;;;2.80;1.60;;;;;;;22.87;71.10;100045.06;5062596;28;20214;-76
2023/05/15 07:32:00;;;;;;;3.10;2.10;;;;;;;23.41;68.50;100051.00;5068367;28;20210;-77
2023/05/15 07:34:26;;;;;;;3.58;1.60;;;;;;;22.93;68.85;100045.72;5069498;28;20202;-76
2023/05/15 07:36:55;;;;;;;4.07;1.75;;;;;;;22.49;71.76;100033.16;5065290;28;20199;-76
2023/05/15 07:39:21;;;;;;;4.43;1.70;;;;;;;22.65;71.80;100048.44;5062144;28;20269;-77
2023/05/15 07:41:48;;;;;;;4.72;1.77;;;;;;;22.38;69.81;100056.44;5054018;28;20211;-76
2023/05/15 07:44:15;;;;;;;6.28;2.20;;;;;;;21.64;75.16;100060.56;5034752;28;20194;-75
2023/05/15 07:46:42;;;;;;;2.55;1.20;;;;;;;21.94;74.98;100053.47;5073082;28;20219;-77
2023/05/15 07:49:08;;;;;;;2.00;1.17;;;;;;;21.62;75.80;100048.28;5021787;28;20670;-77
2023/05/15 07:51:35;;;;;;;5.05;1.70;;;;;;;21.72;78.18;100045.31;5073617;28;20199;-79
2023/05/15 07:54:04;;;;;;;5.82;1.88;;;;;;;21.49;79.64;100039.03;5021765;28;20221;-77
2023/05/15 07:56:30;;;;;;;4.80;1.65;;;;;;;21.64;79.94;100030.66;5073438;28;20264;-78
2023/05/15 07:58:57;;;;;;;5.80;1.90;;;;;;;21.97;79.07;100020.84;5073508;28;20195;-76
2023/05/15 08:01:24;;;;;;;7.28;1.90;;;;;;;22.20;76.45;100027.09;5021622;28;20203;-76
2023/05/15 08:03:51;;;;;;;4.47;1.60;;;;;;;22.80;75.96;100019.75;5073780;28;20629;-76
2023/05/15 08:06:17;;;;;;;5.50;1.65;;;;;;;22.08;77.22;100022.19;5073612;28;20551;-77
2023/05/15 08:08:44;;;;;;;3.90;1.42;;;;;;;22.26;75.44;100015.44;5073661;28;20203;-76
2023/05/15 08:11:12;;;;;;;4.45;1.50;;;;;;;22.46;75.24;100020.06;5073637;28;20211;-76
2023/05/15 08:13:39;;;;;;;4.70;1.58;;;;;;;22.15;75.80;99999.94;5073165;28;20625;-77
2023/05/15 08:16:06;;;;;;;5.05;1.77;;;;;;;22.41;76.99;100003.47;5073285;28;20206;-76
2023/05/15 08:18:33;;;;;;;5.18;1.80;;;;;;;22.64;73.68;99974.50;5073743;28;20198;-76
2023/05/15 08:20:59;;;;;;;6.20;1.85;;;;;;;22.94;73.93;99983.97;5072715;28;20191;-76
2023/05/15 08:23:26;;;;;;;4.45;1.67;;;;;;;22.74;71.41;99975.91;5072939;28;20207;-77
2023/05/15 08:25:53;;;;;;;3.63;1.48;;;;;;;22.41;72.96;99992.91;5072680;28;20280;-77
2023/05/15 08:28:21;;;;;;;5.93;1.88;;;;;;;22.02;73.46;99993.34;5072822;28;20209;-76
2023/05/15 08:30:48;;;;;;;3.78;1.55;;;;;;;22.18;73.60;99991.94;5072872;28;20191;-77
2023/05/15 08:33:14;;;;;;;5.55;1.88;;;;;;;22.96;69.97;99997.16;5072737;28;20222;-76
2023/05/15 08:35:41;;;;;;;2.92;1.30;;;;;;;23.04;67.86;100001.25;5072550;28;20198;-77
2023/05/15 08:38:08;;;;;;;4.90;1.70;;;;;;;23.07;67.22;100005.53;5072612;28;20205;-76
2023/05/15 08:40:35;;;;;;;3.33;1.42;;;;;;;22.69;68.39;99993.69;5072658;28;20246;-77
2023/05/15 08:43:06;;;;;;;4.20;1.42;;;;;;;23.04;67.49;100006.53;5072839;28;20209;-76
2023/05/15 08:45:34;;;;;;;4.05;1.88;;;;;;;22.13;67.46;99879.44;5072643;28;20281;-76
2023/05/15 08:48:06;;;;;;;3.33;1.33;;;;;;;22.61;66.65;99988.69;5021027;28;20701;-77
2023/05/15 08:50:33;;;;;;;2.90;1.25;;;;;;;22.98;66.81;99990.88;5072668;28;20207;-75
2023/05/15 08:53:00;;;;;;;1.90;1.13;;;;;;;22.88;67.02;99991.25;5037520;28;20260;-77
2023/05/15 08:55:27;;;;;;;3.15;1.50;;;;;;;23.03;65.04;100004.81;5020682;28;20279;-75
2023/05/15 08:57:54;;;;;;;3.00;1.42;;;;;;;22.92;63.97;100004.31;5071487;28;20281;-75
2023/05/15 09:00:22;;;;;;;2.50;1.40;;;;;;;23.28;62.99;100006.50;5072275;28;20603;-76
2023/05/15 09:02:50;;;;;;;1.35;1.20;;;;;;;23.19;62.25;100028.88;5020472;28;20706;-76
2023/05/15 09:05:17;;;;;;;1.73;1.40;;;;;;;23.16;62.92;100021.94;5072218;28;20634;-76
2023/05/15 09:07:45;;;;;;;4.00;1.60;;;;;;;23.41;60.10;100016.59;5036736;28;20225;-76
2023/05/15 09:10:14;;;;;;;4.15;1.65;;;;;;;23.60;59.96;100027.34;5072136;28;20198;-76
2023/05/15 09:12:43;;;;;;;3.38;1.52;;;;;;;23.83;59.90;100019.34;5071692;28;20298;-76
2023/05/15 09:15:12;;;;;;;3.70;2.13;;;;;;;24.35;57.73;100017.25;5071723;28;20199;-76
2023/05/15 09:17:41;;;;;;;2.65;1.48;;;;;;;24.70;56.39;100053.72;5072109;28;20199;-76
2023/05/15 09:20:25;;;;;;;2.90;1.75;;;;;;;25.14;54.78;100052.66;5071929;28;20630;-75
2023/05/15 09:22:52;;;;;;;2.95;1.50;;;;;;;25.12;54.13;100033.28;5072213;28;20294;-76
2023/05/15 09:25:33;;;;;;;2.47;1.52;;;;;;;25.22;53.16;100044.31;5071882;28;20590;-75
2023/05/15 09:28:00;;;;;;;2.25;1.38;;;;;;;24.72;56.49;100043.06;5071681;28;20226;-76
2023/05/15 09:30:28;;;;;;;2.33;1.50;;;;;;;24.88;54.84;100039.69;5071868;28;20627;-75
2023/05/15 09:32:56;;;;;;;2.60;1.45;;;;;;;24.98;55.74;100030.38;5071636;28;20191;-76
2023/05/15 09:35:34;;;;;;;2.58;1.50;;;;;;;24.97;55.15;100026.00;5071581;28;20202;-75
2023/05/15 09:38:01;;;;;;;2.45;1.50;;;;;;;24.32;56.57;100017.38;5071449;28;20677;-75
2023/05/15 09:40:30;;;;;;;3.97;1.90;;;;;;;24.65;57.17;100007.94;5071749;28;20234;-75
2023/05/15 09:42:57;;;;;;;2.42;1.50;;;;;;;24.62;57.82;100000.13;5019995;28;20230;-77
2023/05/15 09:45:25;;;;;;;2.42;1.45;;;;;;;24.52;57.51;100005.00;5071363;28;20684;-77
2023/05/15 09:47:53;;;;;;;3.03;1.90;;;;;;;24.18;58.60;100004.72;5071292;28;20313;-75
2023/05/15 09:50:22;;;;;;;1.35;1.23;;;;;;;24.82;58.51;100005.44;5071517;28;20198;-76
2023/05/15 09:52:51;;;;;;;1.33;1.23;;;;;;;25.63;56.33;100005.25;5071295;28;20195;-77
2023/05/15 09:55:19;;;;;;;1.55;1.42;;;;;;;24.79;56.86;99987.03;5071420;28;20225;-75
2023/05/15 09:58:05;;;;;;;1.30;1.20;;;;;;;25.43;55.51;100006.19;5071615;28;20576;-76
2023/05/15 10:00:32;;;;;;;1.38;1.27;;;;;;;25.51;54.18;99963.34;5071492;28;20579;-75
2023/05/15 10:03:00;;;;;;;1.30;1.20;;;;;;;25.46;55.11;99999.88;5070986;28;20251;-74
2023/05/15 10:05:28;;;;;;;1.40;1.30;;;;;;;25.78;55.01;99985.94;5071107;28;20201;-75
2023/05/15 10:07:56;;;;;;;1.27;1.17;;;;;;;26.13;53.14;99993.03;5036205;28;20258;-76
2023/05/15 10:10:24;;;;;;;1.27;1.17;;;;;;;26.30;53.89;99994.00;5071081;28;20198;-75
2023/05/15 10:12:52;;;;;;;1.67;1.40;;;;;;;26.00;52.70;99986.63;5065548;28;20211;-76
2023/05/15 10:15:19;;;;;;;1.58;1.30;;;;;;;25.98;54.45;99974.31;5064691;28;20268;-77
2023/05/15 10:17:48;;;;;;;1.50;1.40;;;;;;;26.36;54.03;99977.75;5054288;28;20636;-75
2023/05/15 10:20:16;;;;;;;1.98;1.65;;;;;;;26.51;52.65;99982.25;5060657;28;20273;-75
2023/05/15 10:22:46;;;;;;;1.88;1.48;;;;;;;26.18;53.25;99970.72;5059837;28;20214;-75
2023/05/15 10:25:21;;;;;;;2.65;1.60;;;;;;;26.23;53.01;99927.00;5054654;28;20203;-77
2023/05/15 10:27:51;;;;;;;2.72;1.58;;;;;;;27.04;51.78;99967.00;5050704;28;20222;-76
2023/05/15 10:30:19;;;;;;;2.35;1.60;;;;;;;26.60;52.57;99965.84;5064715;28;20207;-77
2023/05/15 10:32:47;;;;;;;2.88;1.63;;;;;;;26.48;52.07;99961.13;5050680;28;20203;-75
2023/05/15 10:35:15;;;;;;;1.92;1.40;;;;;;;26.62;52.18;99963.94;5050601;28;20203;-72
2023/05/15 10:37:42;;;;;;;1.55;1.40;;;;;;;26.35;51.75;99952.94;5050398;28;20200;-74
2023/05/15 10:40:10;;;;;;;2.17;1.40;;;;;;;26.67;51.23;99966.38;5063389;28;20237;-83
2023/05/15 10:42:41;;;;;;;2.90;1.50;;;;;;;27.02;50.87;99986.66;5052742;28;20600;-86
2023/05/15 10:45:09;;;;;;;3.42;1.55;;;;;;;27.53;50.57;99985.63;5063382;28;20626;-76
2023/05/15 10:47:38;;;;;;;2.70;1.40;;;;;;;27.07;49.81;99956.19;5066352;28;20218;-75
2023/05/15 10:50:06;;;;;;;3.00;1.45;;;;;;;27.31;49.29;99969.97;5060832;28;20226;-75
2023/05/15 10:52:33;;;;;;;3.30;1.80;;;;;;;26.85;49.44;99966.28;5066505;28;20209;-75
2023/05/15 10:55:00;;;;;;;2.63;1.42;;;;;;;26.96;51.14;99977.22;5070472;28;20195;-75
2023/05/15 10:57:29;;;;;;;3.17;1.48;;;;;;;27.31;49.88;99974.41;5056171;28;20286;-75
2023/05/15 10:59:58;;;;;;;2.25;1.20;;;;;;;27.11;49.50;99973.69;5070424;28;20256;-76
2023/05/15 11:02:28;;;;;;;3.85;1.65;;;;;;;26.78;50.18;99916.09;5056951;28;20199;-76
2023/05/15 11:04:56;;;;;;;2.85;1.40;;;;;;;27.15;50.45;99982.38;5056181;28;20256;-76
2023/05/15 11:07:24;;;;;;;4.00;1.65;;;;;;;27.38;49.06;99970.47;5057820;28;20705;-76
2023/05/15 11:09:51;;;;;;;3.35;1.58;;;;;;;27.28;50.10;99980.78;5019700;28;20202;-76
2023/05/15 11:12:18;;;;;;;3.20;1.40;;;;;;;27.60;49.02;99984.34;5059557;28;20214;-75
2023/05/15 11:15:20;;;;;;;3.70;1.80;;;;;;;28.25;47.91;99995.72;5064012;28;20303;-76
2023/05/15 11:18:03;;;;;;;3.45;1.48;;;;;;;28.46;46.69;99997.09;5064036;28;20206;-75
2023/05/15 11:20:34;;;;;;;5.63;1.88;;;;;;;28.51;46.84;100003.88;4989362;28;20828;-76
2023/05/15 11:23:01;;;;;;;5.88;1.92;;;;;;;27.73;47.88;99996.03;4992512;28;20240;-75
2023/05/15 11:25:29;;;;;;;3.80;1.30;;;;;;;27.18;49.09;99992.03;4972953;28;20213;-74